createdAt,value
2023-07-26T00:01:00.322Z,8.13
2023-07-26T00:03:28.137Z,7.32
2023-07-26T00:05:57.209Z,4.10
2023-07-26T00:08:24.866Z,5.13
2023-07-26T00:10:52.741Z,6.43
2023-07-26T00:13:20.411Z,3.70
2023-07-26T00:15:48.125Z,5.73
2023-07-26T00:18:15.841Z,5.40
2023-07-26T00:20:43.496Z,4.32
2023-07-26T00:23:12.601Z,5.68
2023-07-26T00:25:40.267Z,4.63
2023-07-26T00:28:07.965Z,5.28
2023-07-26T00:30:35.762Z,5.63
2023-07-26T00:33:03.614Z,7.85
2023-07-26T00:35:36.476Z,2.97
2023-07-26T00:38:04.124Z,4.13
2023-07-26T00:40:33.747Z,9.13
2023-07-26T00:43:01.459Z,4.10
2023-07-26T00:45:29.964Z,6.35
2023-07-26T00:47:57.785Z,5.45
2023-07-26T00:50:26.576Z,3.63
2023-07-26T00:52:54.271Z,6.00
2023-07-26T00:55:22.013Z,3.22
2023-07-26T00:57:51.806Z,4.82
2023-07-26T01:00:20.001Z,7.88
2023-07-26T01:02:48.274Z,5.57
2023-07-26T01:05:16.298Z,4.95
2023-07-26T01:07:49.552Z,5.18
2023-07-26T01:10:22.432Z,4.97
2023-07-26T01:12:55.810Z,4.80
2023-07-26T01:15:29.398Z,5.75
2023-07-26T01:18:10.616Z,4.47
2023-07-26T01:20:38.522Z,4.57
2023-07-26T01:23:08.353Z,7.45
2023-07-26T01:25:36.753Z,4.63
2023-07-26T01:28:04.991Z,8.15
2023-07-26T01:30:35.204Z,6.32
2023-07-26T01:33:05.680Z,8.00
2023-07-26T01:35:33.349Z,7.37
2023-07-26T01:38:01.247Z,5.05
2023-07-26T01:40:30.316Z,5.47
2023-07-26T01:42:58.828Z,7.63
2023-07-26T01:45:26.504Z,8.27
2023-07-26T01:47:55.284Z,8.50
2023-07-26T01:50:23.029Z,7.53
2023-07-26T01:52:50.756Z,10.48
2023-07-26T01:55:18.678Z,8.13
2023-07-26T01:57:47.729Z,8.20
2023-07-26T02:00:16.055Z,8.43
2023-07-26T02:02:43.786Z,8.95
2023-07-26T02:05:12.321Z,9.37
2023-07-26T02:07:40.026Z,6.68
2023-07-26T02:10:08.600Z,8.45
2023-07-26T02:12:36.293Z,8.50
2023-07-26T02:15:08.080Z,12.25
2023-07-26T02:17:35.888Z,12.57
2023-07-26T02:20:03.844Z,10.15
2023-07-26T02:22:31.542Z,10.32
2023-07-26T02:24:59.259Z,10.48
2023-07-26T02:27:26.929Z,10.85
2023-07-26T02:29:54.607Z,9.18
2023-07-26T02:32:23.887Z,8.30
2023-07-26T02:34:51.637Z,9.88
2023-07-26T02:37:19.333Z,10.63
2023-07-26T02:39:47.011Z,10.03
2023-07-26T02:42:14.665Z,10.02
2023-07-26T02:44:42.411Z,7.45
2023-07-26T02:47:10.118Z,8.27
2023-07-26T02:49:39.191Z,9.85
2023-07-26T02:52:07.399Z,5.93
2023-07-26T02:54:35.130Z,6.07
2023-07-26T02:57:02.885Z,7.00
2023-07-26T02:59:30.516Z,8.60
2023-07-26T03:01:58.263Z,11.10
2023-07-26T03:04:26.115Z,8.88
2023-07-26T03:06:55.250Z,8.93
2023-07-26T03:09:23.014Z,9.02
2023-07-26T03:11:50.808Z,10.45
2023-07-26T03:14:18.508Z,9.30
2023-07-26T03:16:46.161Z,9.38
2023-07-26T03:19:13.871Z,9.20
2023-07-26T03:21:41.540Z,10.73
2023-07-26T03:24:10.850Z,6.53
2023-07-26T03:26:38.581Z,12.13
2023-07-26T03:29:06.356Z,7.15
2023-07-26T03:31:34.304Z,8.38
2023-07-26T03:34:02.037Z,9.35
2023-07-26T03:36:30.135Z,8.97
2023-07-26T03:38:58.147Z,13.00
2023-07-26T03:41:27.775Z,13.60
2023-07-26T03:43:55.414Z,8.33
2023-07-26T03:46:23.150Z,9.57
2023-07-26T03:48:51.125Z,11.48
2023-07-26T03:51:18.776Z,9.77
2023-07-26T03:53:46.492Z,10.00
2023-07-26T03:56:14.221Z,11.40
2023-07-26T03:58:43.321Z,8.48
2023-07-26T04:01:11.022Z,10.85
2023-07-26T04:03:38.997Z,11.38
2023-07-26T04:06:06.770Z,11.10
2023-07-26T04:08:34.666Z,10.35
2023-07-26T04:11:04.730Z,8.02
2023-07-26T04:13:32.450Z,11.17
2023-07-26T04:16:02.006Z,10.05
2023-07-26T04:18:30.089Z,10.68
2023-07-26T04:20:58.007Z,10.73
2023-07-26T04:23:28.761Z,10.07
2023-07-26T04:25:56.456Z,12.85
2023-07-26T04:28:24.202Z,14.57
2023-07-26T04:30:54.894Z,12.45
2023-07-26T04:33:24.516Z,16.55
2023-07-26T04:35:52.697Z,24.67
2023-07-26T04:38:20.576Z,15.98
2023-07-26T04:40:48.962Z,13.25
2023-07-26T04:43:17.383Z,12.70
2023-07-26T04:45:45.119Z,14.00
2023-07-26T04:48:12.982Z,11.85
2023-07-26T04:50:42.039Z,13.02
2023-07-26T04:53:09.799Z,11.05
2023-07-26T04:55:42.193Z,13.38
2023-07-26T04:58:09.960Z,10.43
2023-07-26T05:00:39.249Z,8.88
2023-07-26T05:03:07.032Z,16.67
2023-07-26T05:05:34.882Z,13.70
2023-07-26T05:08:04.766Z,11.85
2023-07-26T05:10:32.706Z,11.55
2023-07-26T05:13:00.549Z,12.30
2023-07-26T05:15:28.372Z,12.50
2023-07-26T05:17:56.157Z,12.77
2023-07-26T05:20:24.423Z,9.55
2023-07-26T05:22:52.334Z,8.63
2023-07-26T05:25:21.686Z,11.80
2023-07-26T05:27:49.720Z,10.10
2023-07-26T05:30:19.020Z,10.35
2023-07-26T05:32:46.908Z,9.88
2023-07-26T05:35:15.002Z,11.83
2023-07-26T05:37:43.075Z,7.45
2023-07-26T05:40:11.795Z,9.52
2023-07-26T05:42:41.128Z,7.32
2023-07-26T05:45:10.065Z,8.93
2023-07-26T05:47:39.422Z,8.67
2023-07-26T05:50:08.489Z,13.13
2023-07-26T05:52:36.288Z,11.23
2023-07-26T05:55:04.011Z,10.15
2023-07-26T05:57:31.788Z,7.90
2023-07-26T06:00:01.982Z,8.40
2023-07-26T06:02:29.684Z,8.30
2023-07-26T06:04:57.652Z,9.10
2023-07-26T06:07:25.276Z,9.35
2023-07-26T06:09:53.130Z,10.23
2023-07-26T06:12:20.784Z,9.13
2023-07-26T06:14:48.431Z,13.45
2023-07-26T06:17:17.482Z,11.73
2023-07-26T06:19:45.108Z,7.70
2023-07-26T06:22:13.518Z,6.85
2023-07-26T06:24:41.433Z,12.27
2023-07-26T06:27:09.284Z,8.65
2023-07-26T06:29:38.507Z,11.93
2023-07-26T06:32:07.029Z,10.23
2023-07-26T06:34:36.081Z,6.67
2023-07-26T06:37:03.914Z,6.93
2023-07-26T06:39:31.666Z,10.25
2023-07-26T06:41:59.322Z,9.48
2023-07-26T06:44:27.001Z,9.95
2023-07-26T06:47:13.412Z,8.95
2023-07-26T06:49:42.683Z,10.02
2023-07-26T06:52:10.362Z,7.85
2023-07-26T06:54:38.385Z,7.15
2023-07-26T06:57:06.844Z,7.43
2023-07-26T06:59:34.510Z,8.90
2023-07-26T07:02:02.224Z,6.50
2023-07-26T07:04:29.917Z,7.30
2023-07-26T07:07:17.338Z,7.05
2023-07-26T07:09:45.433Z,8.70
2023-07-26T07:12:13.200Z,7.05
2023-07-26T07:14:41.033Z,8.88
2023-07-26T07:17:08.680Z,7.05
2023-07-26T07:19:36.408Z,7.85
2023-07-26T07:22:04.370Z,7.28
2023-07-26T07:24:35.479Z,9.70
2023-07-26T07:27:03.188Z,7.78
2023-07-26T07:29:31.081Z,8.13
2023-07-26T07:32:12.043Z,8.90
2023-07-26T07:34:48.006Z,7.13
2023-07-26T07:37:15.696Z,7.88
2023-07-26T07:39:45.012Z,13.98
2023-07-26T07:42:12.869Z,7.35
2023-07-26T07:44:40.537Z,6.68
2023-07-26T07:47:11.421Z,7.82
2023-07-26T07:49:40.773Z,7.22
2023-07-26T07:52:08.767Z,8.82
2023-07-26T07:54:36.464Z,7.78
2023-07-26T07:57:14.706Z,7.05
2023-07-26T07:59:42.530Z,5.65
2023-07-26T08:02:10.335Z,5.28
2023-07-26T08:04:38.745Z,6.80
2023-07-26T08:07:07.327Z,5.15
2023-07-26T08:09:35.248Z,3.80
2023-07-26T08:12:03.846Z,9.35
2023-07-26T08:14:33.237Z,9.10
2023-07-26T08:17:01.071Z,7.87
2023-07-26T08:19:28.758Z,3.90
2023-07-26T08:21:57.142Z,5.03
2023-07-26T08:24:25.468Z,3.78
2023-07-26T08:26:54.382Z,4.00
2023-07-26T08:29:22.478Z,4.88
2023-07-26T08:31:51.572Z,3.50
2023-07-26T08:34:19.231Z,3.53
2023-07-26T08:36:46.847Z,3.30
2023-07-26T08:39:33.858Z,7.53
2023-07-26T08:42:02.441Z,5.20
2023-07-26T08:44:30.819Z,5.10
2023-07-26T08:47:02.119Z,5.93
2023-07-26T08:49:30.074Z,3.08
2023-07-26T08:51:58.725Z,3.60
2023-07-26T08:54:26.495Z,3.63
2023-07-26T08:56:54.968Z,5.57
2023-07-26T08:59:22.587Z,3.35
2023-07-26T09:02:01.873Z,6.47
2023-07-26T09:04:32.771Z,5.80
2023-07-26T09:07:02.870Z,4.63
2023-07-26T09:09:30.842Z,4.57
2023-07-26T09:11:58.847Z,3.92
2023-07-26T09:14:28.459Z,3.72
2023-07-26T09:16:57.805Z,5.38
2023-07-26T09:19:40.720Z,3.78
2023-07-26T09:22:11.134Z,4.60
2023-07-26T09:24:42.216Z,3.50
2023-07-26T09:27:11.932Z,4.50
2023-07-26T09:29:41.431Z,2.55
2023-07-26T09:32:10.208Z,3.95
2023-07-26T09:34:41.658Z,3.15
2023-07-26T09:37:20.831Z,3.75
2023-07-26T09:39:48.492Z,3.10
2023-07-26T09:42:16.165Z,3.05
2023-07-26T09:44:47.184Z,2.78
2023-07-26T09:47:17.281Z,4.88
2023-07-26T09:50:13.968Z,5.93
2023-07-26T09:52:41.967Z,6.60
2023-07-26T09:55:32.839Z,6.03
2023-07-26T09:58:02.205Z,2.80
2023-07-26T10:00:31.023Z,3.55
2023-07-26T10:03:01.280Z,3.97
2023-07-26T10:05:36.934Z,4.80
2023-07-26T10:08:04.709Z,3.67
2023-07-26T10:10:33.159Z,3.25
2023-07-26T10:13:02.888Z,4.40
2023-07-26T10:15:31.360Z,3.38
2023-07-26T10:17:59.709Z,3.90
2023-07-26T10:20:27.760Z,2.85
2023-07-26T10:23:02.675Z,3.70
2023-07-26T10:25:31.365Z,3.95
2023-07-26T10:27:59.036Z,4.28
2023-07-26T10:30:27.699Z,2.70
2023-07-26T10:32:55.685Z,4.55
2023-07-26T10:35:31.609Z,6.70
2023-07-26T10:38:02.301Z,7.32
2023-07-26T10:40:31.812Z,8.40
2023-07-26T10:43:00.057Z,7.00
2023-07-26T10:45:42.538Z,6.07
2023-07-26T10:48:28.116Z,7.88
2023-07-26T10:50:59.020Z,8.05
2023-07-26T10:53:33.788Z,8.03
2023-07-26T10:56:12.106Z,8.75
2023-07-26T10:59:12.744Z,12.00
2023-07-26T11:01:42.093Z,11.32
2023-07-26T11:04:13.414Z,12.50
2023-07-26T11:06:52.298Z,8.82
2023-07-26T11:09:26.912Z,9.80
2023-07-26T11:11:56.443Z,6.65
2023-07-26T11:14:25.653Z,6.88
2023-07-26T11:16:55.994Z,5.83
2023-07-26T11:19:25.408Z,3.60
2023-07-26T11:21:53.037Z,4.75
2023-07-26T11:24:29.925Z,2.47
2023-07-26T11:26:57.695Z,2.20
2023-07-26T11:29:25.332Z,2.55
2023-07-26T11:31:53.613Z,2.65
2023-07-26T11:34:21.950Z,2.65
2023-07-26T11:36:49.583Z,2.45
2023-07-26T11:39:21.530Z,2.42
2023-07-26T11:41:51.095Z,3.70
2023-07-26T11:44:22.157Z,3.63
2023-07-26T11:46:50.079Z,3.28
2023-07-26T11:49:21.967Z,3.53
2023-07-26T11:51:50.422Z,2.67
2023-07-26T11:54:18.185Z,1.80
2023-07-26T11:56:46.497Z,3.35
2023-07-26T11:59:15.833Z,2.28
2023-07-26T12:01:43.721Z,3.85
2023-07-26T12:04:12.577Z,3.05
2023-07-26T12:06:41.448Z,4.15
2023-07-26T12:09:11.393Z,3.65
2023-07-26T12:11:40.419Z,3.75
2023-07-26T12:14:09.831Z,3.92
2023-07-26T12:16:39.112Z,3.08
2023-07-26T12:19:06.944Z,5.47
2023-07-26T12:21:34.942Z,3.43
2023-07-26T12:24:04.395Z,2.50
2023-07-26T12:26:35.526Z,6.57
2023-07-26T12:29:07.334Z,5.97
2023-07-26T12:31:38.400Z,4.25
2023-07-26T12:34:09.676Z,3.30
2023-07-26T12:36:48.297Z,3.00
2023-07-26T12:39:17.873Z,2.47
2023-07-26T12:41:46.963Z,4.20
2023-07-26T12:44:15.907Z,5.13
2023-07-26T12:47:18.981Z,3.97
2023-07-26T12:49:35.541Z,3.20
2023-07-26T12:52:03.634Z,3.53
2023-07-26T12:54:31.507Z,3.33
2023-07-26T12:56:59.312Z,3.42
2023-07-26T12:59:26.975Z,2.35
2023-07-26T13:01:54.768Z,0.77
2023-07-26T13:04:22.696Z,0.82
2023-07-26T13:09:33.581Z,0.80
2023-07-26T13:12:01.432Z,0.90
2023-07-26T13:14:29.058Z,1.60
2023-07-26T13:16:56.695Z,2.08
2023-07-26T13:19:24.491Z,3.17
2023-07-26T13:21:53.548Z,2.13
2023-07-26T13:24:21.237Z,2.08
2023-07-26T13:26:49.074Z,2.90
2023-07-26T13:29:16.925Z,2.17
2023-07-26T13:31:44.798Z,2.78
2023-07-26T13:34:12.451Z,2.10
2023-07-26T13:36:40.081Z,2.35
2023-07-26T13:39:09.126Z,3.08
2023-07-26T13:41:36.860Z,4.10
2023-07-26T13:44:04.551Z,3.60
2023-07-26T13:46:35.536Z,2.28
2023-07-26T13:49:05.082Z,2.25
2023-07-26T13:51:32.843Z,2.17
2023-07-26T13:54:01.152Z,1.52
2023-07-26T13:56:30.354Z,1.60
2023-07-26T13:59:16.698Z,2.72
2023-07-26T14:01:44.560Z,2.63
2023-07-26T14:04:12.691Z,2.80
2023-07-26T14:06:40.401Z,4.63
2023-07-26T14:09:08.205Z,3.95
2023-07-26T14:11:37.411Z,2.95
2023-07-26T14:14:05.080Z,3.60
2023-07-26T14:16:32.781Z,3.53
2023-07-26T14:19:01.123Z,3.85
2023-07-26T14:21:28.826Z,3.35
2023-07-26T14:23:56.631Z,4.60
2023-07-26T14:26:24.865Z,4.00
2023-07-26T14:28:56.303Z,3.17
2023-07-26T14:31:24.309Z,3.95
2023-07-26T14:36:37.593Z,4.50
2023-07-26T14:39:05.819Z,3.97
2023-07-26T14:41:33.504Z,4.15
2023-07-26T14:44:02.588Z,4.50
2023-07-26T14:46:30.308Z,4.15
2023-07-26T14:48:57.973Z,3.53
2023-07-26T14:51:25.631Z,3.55
2023-07-26T14:53:55.508Z,4.20
2023-07-26T14:56:23.233Z,5.17
2023-07-26T14:58:50.160Z,5.22
2023-07-26T15:01:19.338Z,2.63
2023-07-26T15:03:47.250Z,4.00
2023-07-26T15:06:15.140Z,5.78
2023-07-26T15:08:44.016Z,2.33
2023-07-26T15:11:11.734Z,3.42
2023-07-26T15:13:39.632Z,5.63
2023-07-26T15:16:08.225Z,6.53
2023-07-26T15:18:37.415Z,3.15
2023-07-26T15:21:05.162Z,1.83
2023-07-26T15:23:34.636Z,1.67
2023-07-26T15:26:02.365Z,1.38
2023-07-26T15:28:30.030Z,1.87
2023-07-26T15:30:58.414Z,3.00
2023-07-26T15:33:26.659Z,5.10
2023-07-26T15:35:55.779Z,2.95
2023-07-26T15:38:25.519Z,2.15
2023-07-26T15:40:54.026Z,1.67
2023-07-26T15:43:23.382Z,3.20
2023-07-26T15:48:22.565Z,2.50
2023-07-26T15:53:23.321Z,1.60
2023-07-26T15:55:52.246Z,1.60
2023-07-26T15:58:21.045Z,3.20
2023-07-26T16:00:49.131Z,2.45
2023-07-26T16:03:33.517Z,4.57
2023-07-26T16:11:04.739Z,1.67
2023-07-26T16:13:32.821Z,3.33
2023-07-26T16:18:31.664Z,2.38
2023-07-26T16:23:30.812Z,2.40
2023-07-26T16:26:00.198Z,1.95
2023-07-26T16:28:27.901Z,2.83
2023-07-26T16:30:55.604Z,3.57
2023-07-26T16:33:23.414Z,3.92
2023-07-26T16:35:51.109Z,5.95
2023-07-26T16:38:18.770Z,4.07
2023-07-26T16:43:29.391Z,4.70
2023-07-26T16:45:57.686Z,7.63
2023-07-26T16:48:26.275Z,4.60
2023-07-26T16:50:54.025Z,5.20
2023-07-26T16:53:21.751Z,3.97
2023-07-26T16:55:49.540Z,4.13
2023-07-26T16:58:17.237Z,3.97
2023-07-26T17:00:46.539Z,4.43
2023-07-26T17:03:14.573Z,6.32
2023-07-26T17:05:42.314Z,3.88
2023-07-26T17:08:09.991Z,5.03
2023-07-26T17:10:37.672Z,7.72
2023-07-26T17:13:17.907Z,5.53
2023-07-26T17:15:47.269Z,5.10
2023-07-26T17:18:15.053Z,6.97
2023-07-26T17:20:44.241Z,4.75
2023-07-26T17:23:12.876Z,5.03
2023-07-26T17:25:40.982Z,6.07
2023-07-26T17:28:08.739Z,5.97
2023-07-26T17:30:36.636Z,8.43
2023-07-26T17:33:06.322Z,6.32
2023-07-26T17:35:34.283Z,6.03
2023-07-26T17:38:01.967Z,6.25
2023-07-26T17:40:35.116Z,6.00
2023-07-26T17:43:03.245Z,7.97
2023-07-26T17:45:31.034Z,8.32
2023-07-26T17:47:58.779Z,7.57
2023-07-26T17:53:20.201Z,7.50
2023-07-26T17:55:47.896Z,8.30
2023-07-26T17:58:15.546Z,7.50
2023-07-26T18:00:43.761Z,9.05
2023-07-26T18:03:11.510Z,7.60
2023-07-26T18:05:39.265Z,8.27
2023-07-26T18:08:07.618Z,8.25
2023-07-26T18:10:36.978Z,7.30
2023-07-26T18:13:05.519Z,5.53
2023-07-26T18:15:33.700Z,9.20
2023-07-26T18:18:01.667Z,6.70
2023-07-26T18:20:31.765Z,6.55
2023-07-26T18:22:59.804Z,10.18
2023-07-26T18:25:27.678Z,8.02
2023-07-26T18:27:58.087Z,6.47
2023-07-26T18:30:26.192Z,6.32
2023-07-26T18:32:54.277Z,6.40
2023-07-26T18:35:22.561Z,7.85
2023-07-26T18:37:50.285Z,8.23
2023-07-26T18:40:18.010Z,6.90
2023-07-26T18:42:47.103Z,4.80
2023-07-26T18:45:18.074Z,5.03
2023-07-26T18:47:45.790Z,5.60
2023-07-26T18:50:13.464Z,7.03
2023-07-26T18:52:41.144Z,6.47
2023-07-26T18:55:09.899Z,7.95
2023-07-26T18:57:37.583Z,7.68
2023-07-26T19:00:06.329Z,6.78
2023-07-26T19:02:35.542Z,7.60
2023-07-26T19:05:03.311Z,7.70
2023-07-26T19:07:31.180Z,7.30
2023-07-26T19:09:59.378Z,8.70
2023-07-26T19:12:27.320Z,7.40
2023-07-26T19:14:55.375Z,8.68
2023-07-26T19:17:23.055Z,6.13
2023-07-26T19:19:52.176Z,8.43
2023-07-26T19:22:19.883Z,8.77
2023-07-26T19:24:47.818Z,8.02
2023-07-26T19:27:15.569Z,10.88
2023-07-26T19:29:43.500Z,10.38
2023-07-26T19:32:11.541Z,6.53
2023-07-26T19:34:39.229Z,15.23
2023-07-26T19:37:08.397Z,10.43
2023-07-26T19:39:36.193Z,10.30
2023-07-26T19:42:04.236Z,10.38
2023-07-26T19:44:31.942Z,10.30
2023-07-26T19:46:59.720Z,11.13
2023-07-26T19:49:27.596Z,9.45
2023-07-26T19:51:55.519Z,10.13
2023-07-26T19:54:24.588Z,8.13
2023-07-26T19:56:52.300Z,11.18
2023-07-26T19:59:20.053Z,14.90
2023-07-26T20:01:47.971Z,10.40
2023-07-26T20:04:16.771Z,13.00
2023-07-26T20:06:50.646Z,11.48
2023-07-26T20:09:18.604Z,10.77
2023-07-26T20:11:47.733Z,15.32
2023-07-26T20:14:15.731Z,18.85
2023-07-26T20:16:44.278Z,19.83
2023-07-26T20:19:12.046Z,10.77
2023-07-26T20:21:39.871Z,11.40
2023-07-26T20:24:08.084Z,13.15
2023-07-26T20:27:06.933Z,15.30
2023-07-26T20:29:34.725Z,13.85
2023-07-26T20:32:02.948Z,14.15
2023-07-26T20:34:31.504Z,13.85
2023-07-26T20:36:59.200Z,17.73
2023-07-26T20:39:26.892Z,15.40
2023-07-26T20:41:54.706Z,16.58
2023-07-26T20:44:24.045Z,16.10
2023-07-26T20:46:52.144Z,19.92
2023-07-26T20:49:19.965Z,17.48
2023-07-26T20:51:47.698Z,19.60
2023-07-26T20:54:15.482Z,17.85
2023-07-26T20:56:43.284Z,17.85
2023-07-26T20:59:10.988Z,17.92
2023-07-26T21:01:40.179Z,19.85
2023-07-26T21:04:08.082Z,16.60
2023-07-26T21:06:36.311Z,21.85
2023-07-26T21:09:05.418Z,26.70
2023-07-26T21:11:33.576Z,24.27
2023-07-26T21:14:01.463Z,24.40
2023-07-26T21:16:30.258Z,24.88
2023-07-26T21:18:59.480Z,22.20
2023-07-26T21:21:27.176Z,21.38
2023-07-26T21:23:55.106Z,24.90
2023-07-26T21:26:23.021Z,28.80
2023-07-26T21:28:50.796Z,23.73
2023-07-26T21:31:18.759Z,23.80
2023-07-26T21:33:46.724Z,22.48
2023-07-26T21:36:15.943Z,23.05
2023-07-26T21:38:44.174Z,27.88
2023-07-26T21:41:12.094Z,29.15
2023-07-26T21:43:39.789Z,25.33
2023-07-26T21:46:07.536Z,27.05
2023-07-26T21:48:35.247Z,26.60
2023-07-26T21:51:02.973Z,26.10
2023-07-26T21:53:32.274Z,27.17
2023-07-26T21:56:00.149Z,23.10
2023-07-26T21:58:27.945Z,25.35
2023-07-26T22:00:56.132Z,23.50
2023-07-26T22:03:23.860Z,24.63
2023-07-26T22:05:54.329Z,22.20
2023-07-26T22:08:22.120Z,25.97
2023-07-26T22:10:51.230Z,28.42
2023-07-26T22:13:19.100Z,21.60
2023-07-26T22:15:47.095Z,24.85
2023-07-26T22:18:15.196Z,21.70
2023-07-26T22:21:01.536Z,23.50
2023-07-26T22:23:30.702Z,18.83
2023-07-26T22:26:11.207Z,15.73
2023-07-26T22:28:41.574Z,17.67
2023-07-26T22:31:09.393Z,16.67
2023-07-26T22:33:38.879Z,14.85
2023-07-26T22:36:07.628Z,18.92
2023-07-26T22:38:35.368Z,21.40
2023-07-26T22:41:06.871Z,18.20
2023-07-26T22:43:34.552Z,19.50
2023-07-26T22:46:02.767Z,22.05
2023-07-26T22:48:30.451Z,23.15
2023-07-26T22:50:58.463Z,22.35
2023-07-26T22:53:26.266Z,21.52
2023-07-26T22:55:54.117Z,23.48
2023-07-26T22:58:23.228Z,22.00
2023-07-26T23:00:51.237Z,20.33
2023-07-26T23:03:19.105Z,19.80
2023-07-26T23:05:46.855Z,21.17
2023-07-26T23:08:14.740Z,19.35
2023-07-26T23:10:42.394Z,21.73
2023-07-26T23:13:10.086Z,20.13
2023-07-26T23:15:39.186Z,15.75
2023-07-26T23:18:07.155Z,17.15
2023-07-26T23:20:34.937Z,24.45
2023-07-26T23:23:02.602Z,17.40
2023-07-26T23:25:30.363Z,18.70
2023-07-26T23:27:58.061Z,16.70
2023-07-26T23:30:25.816Z,15.48
2023-07-26T23:32:54.998Z,17.25
2023-07-26T23:35:22.703Z,13.30
2023-07-26T23:37:50.418Z,17.38
2023-07-26T23:40:18.414Z,17.08
2023-07-26T23:42:46.471Z,15.25
2023-07-26T23:45:14.218Z,14.00
2023-07-26T23:47:42.274Z,15.55
2023-07-26T23:50:12.426Z,14.15
2023-07-26T23:52:40.149Z,12.30
2023-07-26T23:55:08.892Z,14.57
2023-07-26T23:57:36.585Z,13.77
